sensor_id;sensor_type;location;lat;lon;timestamp;P1;durP1;ratioP1;P2;durP2;ratioP2
51146;SDS011;37207;53.060;18.726;2024-03-06T09:37:45;8.10;;;7.20;;
51146;SDS011;37207;53.060;18.726;2024-03-06T09:40:16;19.50;;;11.40;;
51146;SDS011;37207;53.060;18.726;2024-03-06T09:42:46;22.10;;;12.60;;
51146;SDS011;37207;53.060;18.726;2024-03-06T09:45:12;35.20;;;25.50;;
51146;SDS011;37207;53.060;18.726;2024-03-06T09:47:37;43.20;;;25.60;;
51146;SDS011;37207;53.060;18.726;2024-03-06T09:50:06;30.90;;;23.90;;
51146;SDS011;37207;53.060;18.726;2024-03-06T09:52:34;31.00;;;23.50;;
51146;SDS011;37207;53.060;18.726;2024-03-06T09:55:01;25.40;;;22.70;;
51146;SDS011;37207;53.060;18.726;2024-03-06T09:57:29;34.90;;;22.50;;
51146;SDS011;37207;53.060;18.726;2024-03-06T09:59:55;29.50;;;21.80;;
51146;SDS011;37207;53.060;18.726;2024-03-06T10:03:04;23.70;;;20.70;;
51146;SDS011;37207;53.060;18.726;2024-03-06T10:05:22;27.20;;;21.70;;
51146;SDS011;37207;53.060;18.726;2024-03-06T10:07:52;33.80;;;24.40;;
51146;SDS011;37207;53.060;18.726;2024-03-06T10:10:18;33.60;;;23.40;;
51146;SDS011;37207;53.060;18.726;2024-03-06T10:12:46;28.30;;;23.00;;
51146;SDS011;37207;53.060;18.726;2024-03-06T10:15:13;18.90;;;12.00;;
51146;SDS011;37207;53.060;18.726;2024-03-06T10:17:39;28.90;;;21.90;;
51146;SDS011;37207;53.060;18.726;2024-03-06T10:20:24;25.60;;;21.70;;
51146;SDS011;37207;53.060;18.726;2024-03-06T10:22:50;32.00;;;21.50;;
51146;SDS011;37207;53.060;18.726;2024-03-06T10:25:20;30.50;;;22.80;;
51146;SDS011;37207;53.060;18.726;2024-03-06T10:28:01;13.90;;;10.50;;
51146;SDS011;37207;53.060;18.726;2024-03-06T10:30:38;25.30;;;13.70;;
51146;SDS011;37207;53.060;18.726;2024-03-06T10:33:07;30.70;;;24.80;;
51146;SDS011;37207;53.060;18.726;2024-03-06T10:35:37;31.10;;;25.50;;
51146;SDS011;37207;53.060;18.726;2024-03-06T10:38:05;29.90;;;24.30;;
51146;SDS011;37207;53.060;18.726;2024-03-06T10:40:36;27.90;;;25.00;;
51146;SDS011;37207;53.060;18.726;2024-03-06T10:43:04;23.50;;;12.30;;
51146;SDS011;37207;53.060;18.726;2024-03-06T10:45:48;26.10;;;23.60;;
51146;SDS011;37207;53.060;18.726;2024-03-06T10:48:19;25.30;;;21.70;;
51146;SDS011;37207;53.060;18.726;2024-03-06T10:50:48;27.70;;;23.70;;
51146;SDS011;37207;53.060;18.726;2024-03-06T10:53:15;26.30;;;22.90;;
51146;SDS011;37207;53.060;18.726;2024-03-06T10:55:43;24.10;;;21.80;;
51146;SDS011;37207;53.060;18.726;2024-03-06T10:58:10;36.60;;;22.30;;
51146;SDS011;37207;53.060;18.726;2024-03-06T11:00:38;30.40;;;22.20;;
51146;SDS011;37207;53.060;18.726;2024-03-06T11:03:05;26.80;;;22.40;;
51146;SDS011;37207;53.060;18.726;2024-03-06T11:05:34;28.70;;;22.10;;
51146;SDS011;37207;53.060;18.726;2024-03-06T11:10:33;27.40;;;23.80;;
51146;SDS011;37207;53.060;18.726;2024-03-06T11:13:01;23.40;;;21.10;;
51146;SDS011;37207;53.060;18.726;2024-03-06T11:15:28;20.10;;;10.00;;
51146;SDS011;37207;53.060;18.726;2024-03-06T11:17:54;28.10;;;21.20;;
51146;SDS011;37207;53.060;18.726;2024-03-06T11:20:22;28.80;;;22.30;;
51146;SDS011;37207;53.060;18.726;2024-03-06T11:28:16;24.20;;;20.20;;
51146;SDS011;37207;53.060;18.726;2024-03-06T11:30:46;26.90;;;21.60;;
51146;SDS011;37207;53.060;18.726;2024-03-06T11:33:41;35.80;;;24.00;;
51146;SDS011;37207;53.060;18.726;2024-03-06T11:38:53;12.00;;;10.20;;
51146;SDS011;37207;53.060;18.726;2024-03-06T11:41:22;24.30;;;21.70;;
51146;SDS011;37207;53.060;18.726;2024-03-06T11:43:50;21.10;;;11.20;;
51146;SDS011;37207;53.060;18.726;2024-03-06T11:46:19;34.00;;;27.10;;
51146;SDS011;37207;53.060;18.726;2024-03-06T11:48:55;30.00;;;23.50;;
51146;SDS011;37207;53.060;18.726;2024-03-06T11:51:21;29.50;;;21.80;;
51146;SDS011;37207;53.060;18.726;2024-03-06T11:53:51;25.30;;;20.80;;
51146;SDS011;37207;53.060;18.726;2024-03-06T11:58:46;12.50;;;9.40;;
51146;SDS011;37207;53.060;18.726;2024-03-06T12:01:13;20.70;;;18.30;;
51146;SDS011;37207;53.060;18.726;2024-03-06T12:03:39;12.30;;;8.70;;
51146;SDS011;37207;53.060;18.726;2024-03-06T12:06:06;23.50;;;20.10;;
51146;SDS011;37207;53.060;18.726;2024-03-06T12:08:33;20.90;;;18.80;;
51146;SDS011;37207;53.060;18.726;2024-03-06T12:11:02;20.90;;;18.50;;
51146;SDS011;37207;53.060;18.726;2024-03-06T12:13:30;18.10;;;8.80;;
51146;SDS011;37207;53.060;18.726;2024-03-06T12:15:56;29.20;;;22.10;;
51146;SDS011;37207;53.060;18.726;2024-03-06T12:18:24;22.30;;;17.80;;
51146;SDS011;37207;53.060;18.726;2024-03-06T12:20:51;32.40;;;24.30;;
51146;SDS011;37207;53.060;18.726;2024-03-06T12:23:20;29.30;;;23.80;;
51146;SDS011;37207;53.060;18.726;2024-03-06T12:25:47;25.50;;;22.60;;
51146;SDS011;37207;53.060;18.726;2024-03-06T12:28:13;28.20;;;19.20;;
51146;SDS011;37207;53.060;18.726;2024-03-06T12:30:40;24.70;;;17.30;;
51146;SDS011;37207;53.060;18.726;2024-03-06T12:33:15;19.30;;;16.00;;
51146;SDS011;37207;53.060;18.726;2024-03-06T12:35:42;19.30;;;14.30;;
51146;SDS011;37207;53.060;18.726;2024-03-06T12:38:14;17.30;;;14.40;;
51146;SDS011;37207;53.060;18.726;2024-03-06T12:40:42;8.20;;;6.00;;
51146;SDS011;37207;53.060;18.726;2024-03-06T12:43:09;15.50;;;13.80;;
51146;SDS011;37207;53.060;18.726;2024-03-06T12:45:35;15.00;;;13.00;;
51146;SDS011;37207;53.060;18.726;2024-03-06T12:48:02;26.70;;;18.50;;
51146;SDS011;37207;53.060;18.726;2024-03-06T12:50:30;16.70;;;14.80;;
51146;SDS011;37207;53.060;18.726;2024-03-06T12:52:56;25.60;;;14.20;;
51146;SDS011;37207;53.060;18.726;2024-03-06T12:55:22;13.40;;;12.30;;
51146;SDS011;37207;53.060;18.726;2024-03-06T12:57:48;17.60;;;12.70;;
51146;SDS011;37207;53.060;18.726;2024-03-06T13:00:15;13.90;;;12.60;;
51146;SDS011;37207;53.060;18.726;2024-03-06T13:02:42;14.30;;;11.80;;
51146;SDS011;37207;53.060;18.726;2024-03-06T13:05:09;12.90;;;11.70;;
51146;SDS011;37207;53.060;18.726;2024-03-06T13:07:35;13.90;;;12.20;;
51146;SDS011;37207;53.060;18.726;2024-03-06T13:10:05;21.80;;;11.90;;
51146;SDS011;37207;53.060;18.726;2024-03-06T13:12:31;5.30;;;3.00;;
51146;SDS011;37207;53.060;18.726;2024-03-06T13:14:57;11.60;;;10.60;;
51146;SDS011;37207;53.060;18.726;2024-03-06T13:17:23;14.40;;;10.50;;
51146;SDS011;37207;53.060;18.726;2024-03-06T13:19:48;9.40;;;8.40;;
51146;SDS011;37207;53.060;18.726;2024-03-06T13:22:14;13.00;;;9.70;;
51146;SDS011;37207;53.060;18.726;2024-03-06T13:24:40;11.60;;;9.00;;
51146;SDS011;37207;53.060;18.726;2024-03-06T13:27:06;14.00;;;9.40;;
51146;SDS011;37207;53.060;18.726;2024-03-06T13:29:31;13.40;;;10.40;;
51146;SDS011;37207;53.060;18.726;2024-03-06T13:31:57;14.40;;;9.10;;
51146;SDS011;37207;53.060;18.726;2024-03-06T13:34:23;10.40;;;9.20;;
51146;SDS011;37207;53.060;18.726;2024-03-06T13:36:48;16.60;;;9.40;;
51146;SDS011;37207;53.060;18.726;2024-03-06T13:39:14;8.60;;;7.90;;
51146;SDS011;37207;53.060;18.726;2024-03-06T13:41:40;8.00;;;7.40;;
51146;SDS011;37207;53.060;18.726;2024-03-06T13:44:06;12.00;;;8.60;;
51146;SDS011;37207;53.060;18.726;2024-03-06T13:46:33;12.10;;;8.50;;
51146;SDS011;37207;53.060;18.726;2024-03-06T13:48:59;9.60;;;7.50;;
51146;SDS011;37207;53.060;18.726;2024-03-06T13:51:26;8.40;;;7.30;;
51146;SDS011;37207;53.060;18.726;2024-03-06T13:53:51;8.10;;;7.30;;
51146;SDS011;37207;53.060;18.726;2024-03-06T13:56:17;9.60;;;7.20;;
51146;SDS011;37207;53.060;18.726;2024-03-06T13:58:44;12.30;;;7.10;;
51146;SDS011;37207;53.060;18.726;2024-03-06T14:01:09;10.70;;;7.40;;
51146;SDS011;37207;53.060;18.726;2024-03-06T14:03:36;7.90;;;7.10;;
51146;SDS011;37207;53.060;18.726;2024-03-06T14:06:03;7.50;;;6.70;;
51146;SDS011;37207;53.060;18.726;2024-03-06T14:08:29;7.80;;;7.20;;
51146;SDS011;37207;53.060;18.726;2024-03-06T14:10:55;8.70;;;8.10;;
51146;SDS011;37207;53.060;18.726;2024-03-06T14:13:21;8.10;;;6.80;;
51146;SDS011;37207;53.060;18.726;2024-03-06T14:15:48;8.00;;;7.40;;
51146;SDS011;37207;53.060;18.726;2024-03-06T14:18:15;11.00;;;7.30;;
51146;SDS011;37207;53.060;18.726;2024-03-06T14:20:40;8.30;;;7.60;;
51146;SDS011;37207;53.060;18.726;2024-03-06T14:23:06;9.30;;;7.00;;
51146;SDS011;37207;53.060;18.726;2024-03-06T14:25:33;13.40;;;8.50;;
51146;SDS011;37207;53.060;18.726;2024-03-06T14:28:03;9.40;;;8.60;;
51146;SDS011;37207;53.060;18.726;2024-03-06T14:30:29;8.90;;;8.20;;
51146;SDS011;37207;53.060;18.726;2024-03-06T14:32:55;13.10;;;8.30;;
51146;SDS011;37207;53.060;18.726;2024-03-06T14:35:21;9.60;;;8.90;;
51146;SDS011;37207;53.060;18.726;2024-03-06T14:37:46;9.70;;;8.80;;
51146;SDS011;37207;53.060;18.726;2024-03-06T14:40:14;8.90;;;8.00;;
51146;SDS011;37207;53.060;18.726;2024-03-06T14:42:42;10.40;;;9.50;;
51146;SDS011;37207;53.060;18.726;2024-03-06T14:45:07;10.80;;;9.50;;
51146;SDS011;37207;53.060;18.726;2024-03-06T14:47:35;12.90;;;9.10;;
51146;SDS011;37207;53.060;18.726;2024-03-06T14:50:01;12.80;;;11.10;;
51146;SDS011;37207;53.060;18.726;2024-03-06T14:52:27;9.90;;;9.10;;
51146;SDS011;37207;53.060;18.726;2024-03-06T14:54:52;10.20;;;9.20;;
51146;SDS011;37207;53.060;18.726;2024-03-06T14:57:18;9.30;;;8.40;;
51146;SDS011;37207;53.060;18.726;2024-03-06T14:59:44;9.40;;;8.60;;
51146;SDS011;37207;53.060;18.726;2024-03-06T15:02:10;9.80;;;8.80;;
51146;SDS011;37207;53.060;18.726;2024-03-06T15:04:35;17.50;;;8.60;;
51146;SDS011;37207;53.060;18.726;2024-03-06T15:07:01;12.00;;;8.20;;
51146;SDS011;37207;53.060;18.726;2024-03-06T15:09:27;8.90;;;8.20;;
51146;SDS011;37207;53.060;18.726;2024-03-06T15:11:53;9.20;;;2.50;;
51146;SDS011;37207;53.060;18.726;2024-03-06T15:14:19;10.70;;;9.10;;
51146;SDS011;37207;53.060;18.726;2024-03-06T15:16:45;6.80;;;4.30;;
51146;SDS011;37207;53.060;18.726;2024-03-06T15:19:11;12.10;;;10.60;;
51146;SDS011;37207;53.060;18.726;2024-03-06T15:21:37;11.20;;;10.40;;
51146;SDS011;37207;53.060;18.726;2024-03-06T15:24:02;10.90;;;9.00;;
51146;SDS011;37207;53.060;18.726;2024-03-06T15:26:28;17.60;;;9.90;;
51146;SDS011;37207;53.060;18.726;2024-03-06T15:28:54;4.60;;;3.30;;
51146;SDS011;37207;53.060;18.726;2024-03-06T15:31:20;17.70;;;9.00;;
51146;SDS011;37207;53.060;18.726;2024-03-06T15:33:45;17.40;;;9.10;;
51146;SDS011;37207;53.060;18.726;2024-03-06T15:36:13;11.90;;;8.80;;
51146;SDS011;37207;53.060;18.726;2024-03-06T15:38:41;16.40;;;9.90;;
51146;SDS011;37207;53.060;18.726;2024-03-06T15:41:07;14.50;;;9.00;;
51146;SDS011;37207;53.060;18.726;2024-03-06T15:43:37;5.10;;;3.00;;
51146;SDS011;37207;53.060;18.726;2024-03-06T15:48:28;11.50;;;9.20;;
51146;SDS011;37207;53.060;18.726;2024-03-06T15:50:55;3.40;;;2.50;;
51146;SDS011;37207;53.060;18.726;2024-03-06T15:53:21;10.10;;;9.10;;
51146;SDS011;37207;53.060;18.726;2024-03-06T15:55:47;10.90;;;10.00;;
51146;SDS011;37207;53.060;18.726;2024-03-06T15:58:12;12.80;;;9.60;;
51146;SDS011;37207;53.060;18.726;2024-03-06T16:00:38;10.40;;;9.60;;
51146;SDS011;37207;53.060;18.726;2024-03-06T16:03:04;12.90;;;10.10;;
51146;SDS011;37207;53.060;18.726;2024-03-06T16:05:30;4.40;;;3.80;;
51146;SDS011;37207;53.060;18.726;2024-03-06T16:07:59;13.60;;;9.60;;
51146;SDS011;37207;53.060;18.726;2024-03-06T16:10:28;10.50;;;9.60;;
51146;SDS011;37207;53.060;18.726;2024-03-06T16:12:54;10.80;;;9.30;;
51146;SDS011;37207;53.060;18.726;2024-03-06T16:15:19;5.80;;;3.40;;
51146;SDS011;37207;53.060;18.726;2024-03-06T16:17:46;4.40;;;3.00;;
51146;SDS011;37207;53.060;18.726;2024-03-06T16:20:11;12.00;;;8.60;;
51146;SDS011;37207;53.060;18.726;2024-03-06T16:22:37;4.10;;;2.90;;
51146;SDS011;37207;53.060;18.726;2024-03-06T16:25:03;5.00;;;3.00;;
51146;SDS011;37207;53.060;18.726;2024-03-06T16:27:30;9.40;;;8.50;;
51146;SDS011;37207;53.060;18.726;2024-03-06T16:29:55;11.20;;;9.00;;
51146;SDS011;37207;53.060;18.726;2024-03-06T16:32:21;12.30;;;8.60;;
51146;SDS011;37207;53.060;18.726;2024-03-06T16:34:47;30.40;;;12.40;;
51146;SDS011;37207;53.060;18.726;2024-03-06T16:37:12;18.10;;;14.90;;
51146;SDS011;37207;53.060;18.726;2024-03-06T16:39:38;6.60;;;4.00;;
51146;SDS011;37207;53.060;18.726;2024-03-06T16:42:04;11.40;;;10.50;;
51146;SDS011;37207;53.060;18.726;2024-03-06T16:44:30;9.70;;;3.40;;
51146;SDS011;37207;53.060;18.726;2024-03-06T16:46:55;10.70;;;4.90;;
51146;SDS011;37207;53.060;18.726;2024-03-06T16:49:21;24.20;;;13.70;;
51146;SDS011;37207;53.060;18.726;2024-03-06T16:51:47;5.80;;;3.60;;
51146;SDS011;37207;53.060;18.726;2024-03-06T16:54:13;31.00;;;13.70;;
51146;SDS011;37207;53.060;18.726;2024-03-06T16:56:39;22.60;;;14.70;;
51146;SDS011;37207;53.060;18.726;2024-03-06T16:59:05;24.60;;;4.90;;
51146;SDS011;37207;53.060;18.726;2024-03-06T17:01:32;14.10;;;4.00;;
51146;SDS011;37207;53.060;18.726;2024-03-06T17:03:59;17.50;;;12.80;;
51146;SDS011;37207;53.060;18.726;2024-03-06T17:06:25;10.30;;;4.80;;
51146;SDS011;37207;53.060;18.726;2024-03-06T17:08:52;8.30;;;4.50;;
51146;SDS011;37207;53.060;18.726;2024-03-06T17:11:19;28.60;;;18.20;;
51146;SDS011;37207;53.060;18.726;2024-03-06T17:13:45;21.70;;;7.80;;
51146;SDS011;37207;53.060;18.726;2024-03-06T17:16:13;24.80;;;18.60;;
51146;SDS011;37207;53.060;18.726;2024-03-06T17:18:40;23.20;;;17.20;;
51146;SDS011;37207;53.060;18.726;2024-03-06T17:21:06;14.30;;;12.10;;
51146;SDS011;37207;53.060;18.726;2024-03-06T17:23:35;8.70;;;3.60;;
51146;SDS011;37207;53.060;18.726;2024-03-06T17:26:02;16.60;;;12.80;;
51146;SDS011;37207;53.060;18.726;2024-03-06T17:28:29;6.90;;;3.60;;
51146;SDS011;37207;53.060;18.726;2024-03-06T17:30:56;13.20;;;12.00;;
51146;SDS011;37207;53.060;18.726;2024-03-06T17:33:23;4.70;;;3.30;;
51146;SDS011;37207;53.060;18.726;2024-03-06T17:35:49;6.90;;;4.10;;
51146;SDS011;37207;53.060;18.726;2024-03-06T17:38:16;13.10;;;3.40;;
51146;SDS011;37207;53.060;18.726;2024-03-06T17:40:43;15.10;;;12.10;;
51146;SDS011;37207;53.060;18.726;2024-03-06T17:43:10;17.60;;;11.90;;
51146;SDS011;37207;53.060;18.726;2024-03-06T17:45:38;5.60;;;3.90;;
51146;SDS011;37207;53.060;18.726;2024-03-06T17:48:05;6.50;;;4.00;;
51146;SDS011;37207;53.060;18.726;2024-03-06T17:50:33;19.70;;;13.00;;
51146;SDS011;37207;53.060;18.726;2024-03-06T17:53:03;6.90;;;4.40;;
51146;SDS011;37207;53.060;18.726;2024-03-06T17:55:37;5.70;;;4.00;;
51146;SDS011;37207;53.060;18.726;2024-03-06T17:58:05;7.40;;;4.00;;
51146;SDS011;37207;53.060;18.726;2024-03-06T18:00:31;7.70;;;4.20;;
51146;SDS011;37207;53.060;18.726;2024-03-06T18:02:58;14.40;;;11.90;;
51146;SDS011;37207;53.060;18.726;2024-03-06T18:05:25;13.10;;;11.80;;
51146;SDS011;37207;53.060;18.726;2024-03-06T18:07:52;17.50;;;4.00;;
51146;SDS011;37207;53.060;18.726;2024-03-06T18:10:19;4.70;;;4.20;;
51146;SDS011;37207;53.060;18.726;2024-03-06T18:12:45;10.50;;;3.50;;
51146;SDS011;37207;53.060;18.726;2024-03-06T18:15:12;15.10;;;13.30;;
51146;SDS011;37207;53.060;18.726;2024-03-06T18:17:39;9.70;;;4.50;;
51146;SDS011;37207;53.060;18.726;2024-03-06T18:20:06;5.90;;;4.80;;
51146;SDS011;37207;53.060;18.726;2024-03-06T18:22:34;11.00;;;4.80;;
51146;SDS011;37207;53.060;18.726;2024-03-06T18:25:01;20.30;;;14.40;;
51146;SDS011;37207;53.060;18.726;2024-03-06T18:27:30;12.30;;;6.00;;
51146;SDS011;37207;53.060;18.726;2024-03-06T18:29:58;14.80;;;6.20;;
51146;SDS011;37207;53.060;18.726;2024-03-06T18:32:25;9.00;;;6.60;;
51146;SDS011;37207;53.060;18.726;2024-03-06T18:34:52;16.00;;;14.40;;
51146;SDS011;37207;53.060;18.726;2024-03-06T18:37:21;9.20;;;5.80;;
51146;SDS011;37207;53.060;18.726;2024-03-06T18:39:49;7.90;;;5.20;;
51146;SDS011;37207;53.060;18.726;2024-03-06T18:42:16;6.70;;;4.10;;
51146;SDS011;37207;53.060;18.726;2024-03-06T18:44:43;9.90;;;6.00;;
51146;SDS011;37207;53.060;18.726;2024-03-06T18:47:09;7.50;;;4.40;;
51146;SDS011;37207;53.060;18.726;2024-03-06T18:49:36;6.10;;;4.90;;
51146;SDS011;37207;53.060;18.726;2024-03-06T18:52:03;6.20;;;4.60;;
51146;SDS011;37207;53.060;18.726;2024-03-06T18:54:30;15.90;;;6.30;;
51146;SDS011;37207;53.060;18.726;2024-03-06T18:56:57;16.10;;;6.00;;
51146;SDS011;37207;53.060;18.726;2024-03-06T18:59:24;16.50;;;13.90;;
51146;SDS011;37207;53.060;18.726;2024-03-06T19:01:51;20.10;;;14.40;;
51146;SDS011;37207;53.060;18.726;2024-03-06T19:04:18;30.20;;;15.50;;
51146;SDS011;37207;53.060;18.726;2024-03-06T19:06:45;7.30;;;4.80;;
51146;SDS011;37207;53.060;18.726;2024-03-06T19:09:12;67.50;;;23.30;;
51146;SDS011;37207;53.060;18.726;2024-03-06T19:11:39;52.30;;;9.40;;
51146;SDS011;37207;53.060;18.726;2024-03-06T19:14:06;98.40;;;30.50;;
51146;SDS011;37207;53.060;18.726;2024-03-06T19:16:32;44.90;;;10.10;;
51146;SDS011;37207;53.060;18.726;2024-03-06T19:19:00;67.40;;;24.40;;
51146;SDS011;37207;53.060;18.726;2024-03-06T19:21:28;52.40;;;20.30;;
51146;SDS011;37207;53.060;18.726;2024-03-06T19:23:55;17.40;;;6.10;;
51146;SDS011;37207;53.060;18.726;2024-03-06T19:26:21;18.50;;;15.20;;
51146;SDS011;37207;53.060;18.726;2024-03-06T19:28:48;12.10;;;4.10;;
51146;SDS011;37207;53.060;18.726;2024-03-06T19:31:15;23.10;;;16.40;;
51146;SDS011;37207;53.060;18.726;2024-03-06T19:33:41;17.50;;;6.40;;
51146;SDS011;37207;53.060;18.726;2024-03-06T19:36:08;45.50;;;21.80;;
51146;SDS011;37207;53.060;18.726;2024-03-06T19:38:34;30.70;;;8.00;;
51146;SDS011;37207;53.060;18.726;2024-03-06T19:41:01;18.90;;;8.30;;
51146;SDS011;37207;53.060;18.726;2024-03-06T19:43:28;30.10;;;19.60;;
51146;SDS011;37207;53.060;18.726;2024-03-06T19:45:59;17.70;;;9.10;;
51146;SDS011;37207;53.060;18.726;2024-03-06T19:48:25;27.80;;;18.00;;
51146;SDS011;37207;53.060;18.726;2024-03-06T19:50:55;19.20;;;7.70;;
51146;SDS011;37207;53.060;18.726;2024-03-06T19:53:21;22.80;;;8.10;;
51146;SDS011;37207;53.060;18.726;2024-03-06T19:55:48;40.90;;;9.50;;
51146;SDS011;37207;53.060;18.726;2024-03-06T19:58:14;20.70;;;8.10;;
51146;SDS011;37207;53.060;18.726;2024-03-06T20:00:45;17.90;;;6.90;;
51146;SDS011;37207;53.060;18.726;2024-03-06T20:03:11;17.80;;;7.90;;
51146;SDS011;37207;53.060;18.726;2024-03-06T20:05:38;16.90;;;7.40;;
51146;SDS011;37207;53.060;18.726;2024-03-06T20:08:06;19.10;;;6.70;;
51146;SDS011;37207;53.060;18.726;2024-03-06T20:10:33;26.30;;;7.00;;
51146;SDS011;37207;53.060;18.726;2024-03-06T20:13:00;14.00;;;7.80;;
51146;SDS011;37207;53.060;18.726;2024-03-06T20:15:31;20.00;;;8.60;;
51146;SDS011;37207;53.060;18.726;2024-03-06T20:18:02;54.40;;;25.50;;
51146;SDS011;37207;53.060;18.726;2024-03-06T20:20:30;29.70;;;9.90;;
51146;SDS011;37207;53.060;18.726;2024-03-06T20:22:58;27.80;;;8.50;;
51146;SDS011;37207;53.060;18.726;2024-03-06T20:25:36;16.60;;;9.00;;
51146;SDS011;37207;53.060;18.726;2024-03-06T20:28:07;19.40;;;8.30;;
51146;SDS011;37207;53.060;18.726;2024-03-06T20:30:36;26.60;;;19.20;;
51146;SDS011;37207;53.060;18.726;2024-03-06T20:33:04;25.30;;;8.20;;
51146;SDS011;37207;53.060;18.726;2024-03-06T20:35:32;33.50;;;22.40;;
51146;SDS011;37207;53.060;18.726;2024-03-06T20:37:58;20.20;;;8.80;;
51146;SDS011;37207;53.060;18.726;2024-03-06T20:40:25;21.10;;;10.00;;
51146;SDS011;37207;53.060;18.726;2024-03-06T20:42:54;27.20;;;9.00;;
51146;SDS011;37207;53.060;18.726;2024-03-06T20:45:22;22.90;;;10.30;;
51146;SDS011;37207;53.060;18.726;2024-03-06T20:47:49;23.30;;;9.30;;
51146;SDS011;37207;53.060;18.726;2024-03-06T20:50:15;19.00;;;8.10;;
51146;SDS011;37207;53.060;18.726;2024-03-06T20:52:42;25.50;;;8.80;;
51146;SDS011;37207;53.060;18.726;2024-03-06T20:55:09;17.20;;;7.60;;
51146;SDS011;37207;53.060;18.726;2024-03-06T20:57:35;14.20;;;8.30;;
51146;SDS011;37207;53.060;18.726;2024-03-06T21:00:02;26.20;;;10.90;;
51146;SDS011;37207;53.060;18.726;2024-03-06T21:02:30;50.70;;;31.80;;
51146;SDS011;37207;53.060;18.726;2024-03-06T21:04:56;29.20;;;12.70;;
51146;SDS011;37207;53.060;18.726;2024-03-06T21:07:23;29.50;;;11.90;;
51146;SDS011;37207;53.060;18.726;2024-03-06T21:09:49;28.10;;;11.40;;
51146;SDS011;37207;53.060;18.726;2024-03-06T21:12:16;27.20;;;11.00;;
51146;SDS011;37207;53.060;18.726;2024-03-06T21:14:42;31.40;;;11.10;;
51146;SDS011;37207;53.060;18.726;2024-03-06T21:17:09;20.90;;;10.40;;
51146;SDS011;37207;53.060;18.726;2024-03-06T21:19:36;20.00;;;10.70;;
51146;SDS011;37207;53.060;18.726;2024-03-06T21:22:03;22.80;;;8.90;;
51146;SDS011;37207;53.060;18.726;2024-03-06T21:26:59;12.00;;;7.90;;
51146;SDS011;37207;53.060;18.726;2024-03-06T21:29:25;50.60;;;29.90;;
51146;SDS011;37207;53.060;18.726;2024-03-06T21:31:53;82.70;;;25.80;;
51146;SDS011;37207;53.060;18.726;2024-03-06T21:34:20;72.60;;;23.70;;
51146;SDS011;37207;53.060;18.726;2024-03-06T21:36:47;48.90;;;20.40;;
51146;SDS011;37207;53.060;18.726;2024-03-06T21:39:14;49.10;;;15.70;;
51146;SDS011;37207;53.060;18.726;2024-03-06T21:41:41;23.30;;;12.40;;
51146;SDS011;37207;53.060;18.726;2024-03-06T21:44:09;32.50;;;12.00;;
51146;SDS011;37207;53.060;18.726;2024-03-06T21:46:35;20.70;;;9.20;;
51146;SDS011;37207;53.060;18.726;2024-03-06T21:49:03;16.50;;;8.50;;
51146;SDS011;37207;53.060;18.726;2024-03-06T21:51:30;14.60;;;7.30;;
51146;SDS011;37207;53.060;18.726;2024-03-06T21:53:56;32.50;;;22.20;;
51146;SDS011;37207;53.060;18.726;2024-03-06T21:56:23;27.90;;;23.20;;
51146;SDS011;37207;53.060;18.726;2024-03-06T21:58:49;26.10;;;8.60;;
51146;SDS011;37207;53.060;18.726;2024-03-06T22:01:16;27.10;;;9.30;;
51146;SDS011;37207;53.060;18.726;2024-03-06T22:03:43;27.90;;;9.00;;
51146;SDS011;37207;53.060;18.726;2024-03-06T22:06:10;26.70;;;9.70;;
51146;SDS011;37207;53.060;18.726;2024-03-06T22:08:37;17.20;;;8.60;;
51146;SDS011;37207;53.060;18.726;2024-03-06T22:11:05;17.20;;;8.80;;
51146;SDS011;37207;53.060;18.726;2024-03-06T22:13:34;27.30;;;10.10;;
51146;SDS011;37207;53.060;18.726;2024-03-06T22:16:01;27.10;;;10.70;;
51146;SDS011;37207;53.060;18.726;2024-03-06T22:18:28;18.70;;;8.90;;
51146;SDS011;37207;53.060;18.726;2024-03-06T22:20:55;31.90;;;23.20;;
51146;SDS011;37207;53.060;18.726;2024-03-06T22:23:22;14.40;;;8.50;;
51146;SDS011;37207;53.060;18.726;2024-03-06T22:25:50;19.30;;;9.60;;
51146;SDS011;37207;53.060;18.726;2024-03-06T22:28:16;32.80;;;24.30;;
51146;SDS011;37207;53.060;18.726;2024-03-06T22:30:43;19.10;;;9.50;;
51146;SDS011;37207;53.060;18.726;2024-03-06T22:33:11;14.20;;;8.30;;
51146;SDS011;37207;53.060;18.726;2024-03-06T22:35:40;11.10;;;6.80;;
51146;SDS011;37207;53.060;18.726;2024-03-06T22:38:07;15.50;;;8.10;;
51146;SDS011;37207;53.060;18.726;2024-03-06T22:40:40;18.30;;;8.90;;
51146;SDS011;37207;53.060;18.726;2024-03-06T22:43:11;23.60;;;10.40;;
51146;SDS011;37207;53.060;18.726;2024-03-06T22:45:41;17.60;;;6.30;;
51146;SDS011;37207;53.060;18.726;2024-03-06T22:48:08;20.30;;;10.50;;
51146;SDS011;37207;53.060;18.726;2024-03-06T22:50:34;16.20;;;10.10;;
51146;SDS011;37207;53.060;18.726;2024-03-06T22:53:01;19.80;;;9.90;;
51146;SDS011;37207;53.060;18.726;2024-03-06T22:55:28;16.60;;;10.30;;
51146;SDS011;37207;53.060;18.726;2024-03-06T22:57:55;20.70;;;10.50;;
51146;SDS011;37207;53.060;18.726;2024-03-06T23:00:30;18.40;;;9.10;;
51146;SDS011;37207;53.060;18.726;2024-03-06T23:03:04;36.30;;;10.30;;
51146;SDS011;37207;53.060;18.726;2024-03-06T23:05:39;14.40;;;8.80;;
51146;SDS011;37207;53.060;18.726;2024-03-06T23:08:11;20.60;;;11.70;;
51146;SDS011;37207;53.060;18.726;2024-03-06T23:10:38;22.40;;;9.40;;
51146;SDS011;37207;53.060;18.726;2024-03-06T23:13:10;27.60;;;10.60;;
51146;SDS011;37207;53.060;18.726;2024-03-06T23:15:41;28.00;;;11.70;;
51146;SDS011;37207;53.060;18.726;2024-03-06T23:18:09;27.60;;;11.80;;
51146;SDS011;37207;53.060;18.726;2024-03-06T23:20:38;28.60;;;10.70;;
51146;SDS011;37207;53.060;18.726;2024-03-06T23:23:05;23.70;;;8.60;;
51146;SDS011;37207;53.060;18.726;2024-03-06T23:25:32;36.30;;;27.10;;
51146;SDS011;37207;53.060;18.726;2024-03-06T23:27:59;22.40;;;9.10;;
51146;SDS011;37207;53.060;18.726;2024-03-06T23:30:27;15.40;;;10.10;;
51146;SDS011;37207;53.060;18.726;2024-03-06T23:32:54;20.60;;;9.80;;
51146;SDS011;37207;53.060;18.726;2024-03-06T23:35:21;36.60;;;26.90;;
51146;SDS011;37207;53.060;18.726;2024-03-06T23:37:47;19.70;;;9.40;;
51146;SDS011;37207;53.060;18.726;2024-03-06T23:40:15;24.60;;;11.40;;
51146;SDS011;37207;53.060;18.726;2024-03-06T23:42:43;17.70;;;9.80;;
51146;SDS011;37207;53.060;18.726;2024-03-06T23:45:12;22.20;;;10.40;;
51146;SDS011;37207;53.060;18.726;2024-03-06T23:47:44;20.00;;;9.60;;
51146;SDS011;37207;53.060;18.726;2024-03-06T23:50:15;17.70;;;10.00;;
51146;SDS011;37207;53.060;18.726;2024-03-06T23:52:46;41.50;;;27.00;;
51146;SDS011;37207;53.060;18.726;2024-03-06T23:55:14;15.20;;;8.90;;
51146;SDS011;37207;53.060;18.726;2024-03-06T23:57:41;26.60;;;10.60;;
